Time;durP1;ratioP1;P1;durP2;ratioP2;P2;SDS_P1;SDS_P2;PMS_P1;PMS_P2;Temp;Humidity;BMP_temperature;BMP_pressure;BME280_temperature;BME280_humidity;BME280_pressure;Samples;Min_cycle;Max_cycle;Signal;HPM_P1;HPM_P2
2022/04/21 00:00:17;;;;;;;13.98;8.23;;;;;;;5.02;71.06;99653.03;6323583;28;20048;-87
2022/04/21 00:03:18;;;;;;;12.00;7.88;;;;;;;5.00;71.09;99649.66;6305280;28;20048;-80
2022/04/21 00:06:19;;;;;;;11.82;7.90;;;;;;;4.97;71.06;99660.16;6321577;28;20144;-86
2022/04/21 00:09:19;;;;;;;14.23;7.78;;;;;;;4.94;70.69;99666.31;6322561;28;20476;-80
2022/04/21 00:12:20;;;;;;;10.65;7.45;;;;;;;4.93;70.73;99671.53;6307094;28;20411;-85
2022/04/21 00:15:22;;;;;;;10.60;7.97;;;;;;;4.93;70.81;99668.94;6307427;28;20043;-86
2022/04/21 00:18:23;;;;;;;14.55;7.97;;;;;;;4.88;71.50;99673.47;6322530;28;20040;-81
2022/04/21 00:23:25;;;;;;;10.63;7.53;;;;;;;4.79;71.36;99672.97;6272885;28;20082;-87
2022/04/21 00:24:44;;;;;;;10.52;7.25;;;;;;;4.70;72.67;99677.72;6310077;28;20047;-85
2022/04/21 00:27:46;;;;;;;11.00;7.93;;;;;;;4.70;73.12;99670.78;6323458;28;20068;-85
2022/04/21 00:30:47;;;;;;;14.07;8.55;;;;;;;4.67;73.96;99670.06;6304843;28;20051;-80
2022/04/21 00:33:48;;;;;;;13.00;9.23;;;;;;;4.72;74.11;99673.31;6305828;28;20074;-79
2022/04/21 00:36:48;;;;;;;10.75;7.97;;;;;;;4.72;73.72;99684.47;6321072;28;20063;-79
2022/04/21 00:39:50;;;;;;;14.30;8.48;;;;;;;4.68;73.60;99684.69;6304551;28;20047;-80
2022/04/21 00:42:51;;;;;;;14.77;9.40;;;;;;;4.56;74.10;99691.22;6305370;28;20043;-88
2022/04/21 00:45:54;;;;;;;21.90;9.68;;;;;;;4.54;75.15;99691.25;6321321;28;20272;-80
2022/04/21 00:48:56;;;;;;;18.38;9.23;;;;;;;4.53;75.57;99686.16;6304996;28;20079;-84
2022/04/21 00:52:00;;;;;;;16.33;9.98;;;;;;;4.50;76.06;99689.72;6323050;28;20040;-84
2022/04/21 00:55:01;;;;;;;12.93;9.35;;;;;;;4.51;76.15;99698.28;6324879;28;20040;-84
2022/04/21 00:58:04;;;;;;;13.05;8.95;;;;;;;4.39;76.99;99697.09;6322712;28;20492;-80
2022/04/21 01:02:46;;;;;;;17.67;9.57;;;;;;;4.33;76.98;99685.25;6322807;28;20040;-85
2022/04/21 01:04:29;;;;;;;14.23;9.10;;;;;;;4.33;77.04;99687.00;6322156;28;20051;-79
2022/04/21 01:07:29;;;;;;;14.57;9.70;;;;;;;4.36;77.43;99687.69;6322150;28;20036;-79
2022/04/21 01:10:33;;;;;;;13.68;8.98;;;;;;;4.33;77.18;99684.41;6321148;28;20055;-79
2022/04/21 01:13:35;;;;;;;13.27;9.25;;;;;;;4.34;77.40;99688.66;6304435;28;20052;-85
2022/04/21 01:16:36;;;;;;;17.27;9.52;;;;;;;4.23;77.83;99691.69;6304569;28;20059;-79
2022/04/21 01:19:36;;;;;;;17.20;9.55;;;;;;;4.20;78.56;99686.63;6305203;28;20048;-87
2022/04/21 01:22:37;;;;;;;13.68;9.23;;;;;;;4.10;78.86;99685.31;6321845;28;20131;-78
2022/04/21 01:25:39;;;;;;;16.98;8.73;;;;;;;4.12;79.25;99679.22;6304555;28;20036;-79
2022/04/21 01:28:40;;;;;;;13.60;8.80;;;;;;;4.11;79.06;99680.13;6320724;28;20542;-79
2022/04/21 01:31:42;;;;;;;14.63;9.27;;;;;;;4.00;79.87;99672.81;6303413;28;20075;-79
2022/04/21 01:34:42;;;;;;;21.48;9.18;;;;;;;3.88;80.39;99669.88;6303610;28;20118;-85
2022/04/21 01:41:11;;;;;;;14.73;9.13;;;;;;;3.88;80.89;99685.38;6293013;28;20048;-85
2022/04/21 01:44:12;;;;;;;19.83;9.20;;;;;;;3.93;81.50;99688.59;6321413;28;20086;-85
2022/04/21 01:47:13;;;;;;;14.55;8.68;;;;;;;3.92;81.63;99679.19;6286632;28;20072;-79
2022/04/21 01:50:14;;;;;;;17.48;9.63;;;;;;;3.86;81.89;99680.25;6302818;28;20061;-80
2022/04/21 01:53:15;;;;;;;12.52;8.65;;;;;;;3.82;83.00;99676.13;6321122;28;20043;-78
2022/04/21 01:56:16;;;;;;;16.17;9.18;;;;;;;3.86;82.82;99680.25;6304469;28;20564;-86
2022/04/21 01:59:17;;;;;;;13.63;8.88;;;;;;;3.87;82.40;99684.53;6320876;28;20043;-79
2022/04/21 02:02:18;;;;;;;14.85;8.60;;;;;;;3.90;82.46;99686.16;6303531;28;20043;-86
2022/04/21 02:05:19;;;;;;;15.73;9.23;;;;;;;3.86;82.58;99694.91;6287999;28;20044;-85
2022/04/21 02:08:19;;;;;;;14.70;9.45;;;;;;;3.84;83.14;99690.63;6304834;28;20484;-85
2022/04/21 02:11:20;;;;;;;13.38;9.18;;;;;;;3.70;84.76;99689.50;6321039;28;20038;-85
2022/04/21 02:14:21;;;;;;;16.10;10.18;;;;;;;3.67;84.52;99682.72;6302445;28;20052;-87
2022/04/21 02:17:25;;;;;;;14.43;9.60;;;;;;;3.70;84.35;99676.59;6304106;28;20481;-85
2022/04/21 02:20:26;;;;;;;17.13;9.23;;;;;;;3.71;84.67;99689.44;6320647;28;20044;-84
2022/04/21 02:23:27;;;;;;;16.58;10.15;;;;;;;3.65;85.98;99686.25;6304438;28;20047;-85
2022/04/21 02:26:28;;;;;;;12.75;9.35;;;;;;;3.58;87.98;99690.78;6287723;28;20423;-85
2022/04/21 02:29:28;;;;;;;17.83;10.40;;;;;;;3.62;88.71;99702.69;6304683;28;20032;-85
2022/04/21 02:32:29;;;;;;;18.23;10.50;;;;;;;3.57;89.06;99695.13;6325374;28;20047;-81
2022/04/21 02:35:30;;;;;;;18.60;10.43;;;;;;;3.32;90.77;99715.00;6326256;28;20036;-81
2022/04/21 02:38:31;;;;;;;17.10;10.48;;;;;;;3.19;91.90;99707.72;6325289;28;20445;-86
2022/04/21 02:41:32;;;;;;;17.25;11.25;;;;;;;3.10;92.81;99707.19;6291951;28;20455;-81
2022/04/21 02:44:32;;;;;;;17.90;10.68;;;;;;;3.25;90.88;99713.53;6308502;28;20118;-87
2022/04/21 02:47:44;;;;;;;20.15;12.15;;;;;;;3.29;90.93;99709.94;6309384;28;20165;-86
2022/04/21 02:50:48;;;;;;;22.95;12.93;;;;;;;3.27;93.48;99704.00;6326294;28;20135;-86
2022/04/21 02:57:20;;;;;;;25.27;13.38;;;;;;;3.23;96.37;99713.56;6324814;28;20089;-80
2022/04/21 03:00:21;;;;;;;;;;;;;;;3.27;96.93;99716.88;6309121;28;20044;-79
2022/04/21 03:03:22;;;;;;;21.98;13.32;;;;;;;3.32;96.64;99702.94;6307148;28;20334;-81
2022/04/21 03:06:23;;;;;;;30.55;14.98;;;;;;;3.35;97.95;99705.38;6291215;28;20525;-85
2022/04/21 03:09:23;;;;;;;22.25;14.88;;;;;;;3.33;99.43;99696.03;6290062;28;20040;-79
2022/04/21 03:12:29;;;;;;;28.92;15.73;;;;;;;3.37;99.09;99700.19;6289588;28;20052;-79
2022/04/21 03:15:30;;;;;;;23.88;15.38;;;;;;;3.32;100.00;99695.19;6306621;28;20105;-86
2022/04/21 03:18:31;;;;;;;26.15;15.82;;;;;;;3.33;100.00;99694.28;6290658;28;20059;-86
2022/04/21 03:24:51;;;;;;;27.08;17.77;;;;;;;3.34;100.00;99696.00;6295949;28;20075;-86
2022/04/21 03:27:51;;;;;;;28.73;17.23;;;;;;;3.31;100.00;99705.56;6307381;28;20411;-79
2022/04/21 03:30:52;;;;;;;27.40;17.42;;;;;;;3.30;100.00;99706.47;6289924;28;20048;-79
2022/04/21 03:33:54;;;;;;;27.33;17.95;;;;;;;3.28;100.00;99705.69;6307286;28;20069;-85
2022/04/21 03:36:55;;;;;;;25.52;17.55;;;;;;;3.30;100.00;99699.56;6306855;28;20044;-85
2022/04/21 03:39:56;;;;;;;26.80;16.95;;;;;;;3.31;100.00;99697.84;6324532;28;20056;-86
2022/04/21 03:42:57;;;;;;;28.80;17.58;;;;;;;3.11;100.00;99690.81;6305082;28;20374;-80
2022/04/21 03:45:57;;;;;;;28.85;18.48;;;;;;;3.09;100.00;99698.63;6306154;28;20416;-88
2022/04/21 03:48:58;;;;;;;29.63;18.00;;;;;;;3.14;100.00;99707.03;6305610;28;20123;-79
2022/04/21 03:51:59;;;;;;;26.17;17.23;;;;;;;3.18;100.00;99706.00;6288655;28;20070;-80
2022/04/21 03:55:00;;;;;;;30.67;19.65;;;;;;;3.09;100.00;99687.44;6322514;28;20053;-86
2022/04/21 03:58:01;;;;;;;30.83;19.27;;;;;;;3.00;100.00;99694.63;6305983;28;20137;-80
2022/04/21 04:01:01;;;;;;;30.98;20.00;;;;;;;3.05;100.00;99693.59;6273532;28;20052;-87
2022/04/21 04:04:02;;;;;;;28.73;19.42;;;;;;;3.10;100.00;99702.03;6307459;28;20492;-87
2022/04/21 04:13:43;;;;;;;31.20;19.98;;;;;;;3.06;100.00;99695.31;6309488;28;20056;-91
2022/04/21 04:16:44;;;;;;;26.48;19.15;;;;;;;3.08;100.00;99690.94;6288464;28;20040;-80
2022/04/21 04:19:45;;;;;;;31.50;20.37;;;;;;;3.13;100.00;99691.59;6288629;28;20040;-88
2022/04/21 04:22:46;;;;;;;29.38;19.17;;;;;;;3.17;100.00;99696.59;6323122;28;20307;-87
2022/04/21 04:25:47;;;;;;;28.25;17.88;;;;;;;3.22;100.00;99696.44;6321884;28;20065;-80
2022/04/21 04:28:49;;;;;;;37.65;20.10;;;;;;;3.28;100.00;99697.97;6289177;28;20222;-87
2022/04/21 04:31:52;;;;;;;28.63;20.10;;;;;;;3.21;100.00;99705.06;6306513;28;20043;-89
2022/04/21 04:34:53;;;;;;;30.58;18.73;;;;;;;3.12;100.00;99702.81;6306151;28;20511;-89
2022/04/21 04:37:53;;;;;;;33.90;21.88;;;;;;;3.25;100.00;99703.22;6306447;28;20038;-88
2022/04/21 04:40:54;;;;;;;29.55;20.63;;;;;;;3.30;100.00;99715.06;6305341;28;20052;-88
2022/04/21 04:43:55;;;;;;;31.98;21.45;;;;;;;3.33;100.00;99717.50;6289299;28;20046;-90
2022/04/21 04:46:57;;;;;;;37.63;21.20;;;;;;;3.43;100.00;99715.44;6322731;28;20040;-87
2022/04/21 04:49:57;;;;;;;31.90;20.85;;;;;;;3.54;100.00;99710.72;6323155;28;20043;-89
2022/04/21 04:52:59;;;;;;;32.78;20.95;;;;;;;3.65;100.00;99712.91;6288259;28;20040;-85
2022/04/21 04:56:00;;;;;;;32.93;20.73;;;;;;;3.61;100.00;99719.06;6321370;28;20404;-79
2022/04/21 04:59:02;;;;;;;34.42;22.60;;;;;;;3.72;100.00;99718.66;6304229;28;20289;-87
2022/04/21 05:02:03;;;;;;;34.95;21.23;;;;;;;3.66;100.00;99711.16;6304609;28;20044;-87
2022/04/21 05:05:05;;;;;;;35.47;22.75;;;;;;;3.68;100.00;99712.75;6320998;28;20047;-80
2022/04/21 05:08:06;;;;;;;38.33;23.58;;;;;;;3.82;100.00;99714.81;6304367;28;20085;-87
2022/04/21 05:11:07;;;;;;;38.80;22.77;;;;;;;3.95;100.00;99715.19;6321315;28;20051;-82
2022/04/21 05:14:08;;;;;;;43.95;24.50;;;;;;;3.99;100.00;99716.75;6303363;28;20056;-80
2022/04/21 05:17:10;;;;;;;39.07;23.40;;;;;;;4.08;100.00;99718.13;6321974;28;20040;-86
2022/04/21 05:20:11;;;;;;;34.78;22.60;;;;;;;4.08;100.00;99720.69;6320445;28;20073;-79
2022/04/21 05:23:16;;;;;;;40.50;24.83;;;;;;;4.17;100.00;99715.19;6286837;28;20134;-78
2022/04/21 05:26:17;;;;;;;34.60;21.95;;;;;;;4.24;100.00;99701.97;6320451;28;20069;-83
2022/04/21 05:32:40;;;;;;;42.35;22.50;;;;;;;4.40;100.00;99715.06;6321575;28;20040;-79
2022/04/21 05:35:42;;;;;;;42.08;24.92;;;;;;;4.48;100.00;99719.09;6321220;28;20065;-81
2022/04/21 05:38:43;;;;;;;35.47;22.00;;;;;;;4.53;100.00;99720.59;6302991;28;20046;-82
2022/04/21 05:41:44;;;;;;;37.33;22.80;;;;;;;4.62;100.00;99719.38;6319838;28;20488;-86
2022/04/21 05:44:45;;;;;;;40.83;23.70;;;;;;;4.67;100.00;99720.00;6302389;28;20367;-83
2022/04/21 05:47:47;;;;;;;32.78;20.98;;;;;;;4.82;100.00;99728.88;6302566;28;20077;-78
2022/04/21 05:50:51;;;;;;;33.10;21.33;;;;;;;4.90;100.00;99728.53;6302679;28;20069;-78
2022/04/21 05:53:53;;;;;;;33.38;20.23;;;;;;;5.01;100.00;99724.59;6302513;28;20051;-78
2022/04/21 05:56:54;;;;;;;31.90;21.33;;;;;;;5.25;100.00;99724.44;6302317;28;20056;-79
2022/04/21 05:59:55;;;;;;;36.00;23.08;;;;;;;5.32;100.00;99727.59;6302361;28;20416;-81
2022/04/21 06:02:56;;;;;;;36.72;20.85;;;;;;;5.43;100.00;99731.34;6285644;28;20052;-77
2022/04/21 06:05:57;;;;;;;45.60;25.75;;;;;;;5.56;100.00;99730.81;6318556;28;20047;-83
2022/04/21 06:08:57;;;;;;;33.13;21.85;;;;;;;5.58;100.00;99735.03;6320369;28;20488;-77
2022/04/21 06:11:58;;;;;;;36.10;22.25;;;;;;;5.65;100.00;99746.75;6320079;28;20152;-86
2022/04/21 06:14:59;;;;;;;34.75;21.38;;;;;;;5.78;100.00;99736.69;6319152;28;20382;-86
2022/04/21 06:18:00;;;;;;;30.17;20.48;;;;;;;5.86;100.00;99739.75;6269318;28;20077;-84
2022/04/21 06:21:02;;;;;;;32.67;21.65;;;;;;;6.12;100.00;99729.13;6302195;28;20138;-84
2022/04/21 06:24:03;;;;;;;33.23;20.47;;;;;;;6.19;96.55;99728.72;6302513;28;20101;-87
2022/04/21 06:27:04;;;;;;;36.55;23.17;;;;;;;6.30;96.87;99727.38;6285410;28;20292;-84
2022/04/21 06:30:05;;;;;;;30.17;21.50;;;;;;;6.51;97.23;99726.34;6302245;28;20044;-87
2022/04/21 06:33:06;;;;;;;34.00;21.88;;;;;;;6.66;95.92;99730.75;6301989;28;20052;-78
2022/04/21 06:36:07;;;;;;;33.17;20.33;;;;;;;6.81;93.15;99728.31;6278200;28;20063;-77
2022/04/21 06:39:08;;;;;;;32.97;20.52;;;;;;;7.10;90.88;99721.63;6291670;28;20515;-78
2022/04/21 06:42:09;;;;;;;28.45;20.98;;;;;;;7.39;90.03;99735.69;6302965;28;20041;-85
2022/04/21 06:48:29;;;;;;;32.30;19.75;;;;;;;7.93;87.28;99730.19;6313392;28;20499;-83
2022/04/21 06:51:30;;;;;;;29.45;20.92;;;;;;;7.92;84.57;99731.09;6318856;28;20032;-86
2022/04/21 06:54:31;;;;;;;28.50;18.25;;;;;;;8.00;80.45;99722.88;6318840;28;20055;-78
2022/04/21 06:57:32;;;;;;;26.00;18.40;;;;;;;8.26;81.74;99727.47;6301953;28;20040;-79
2022/04/21 07:00:33;;;;;;;26.17;18.05;;;;;;;8.27;79.11;99730.91;6318826;28;20097;-86
2022/04/21 07:03:35;;;;;;;26.52;17.60;;;;;;;8.42;79.18;99726.59;6293949;28;20048;-79
2022/04/21 07:06:35;;;;;;;30.70;19.58;;;;;;;8.53;78.28;99721.66;6293456;28;20057;-79
2022/04/21 07:09:36;;;;;;;27.95;18.02;;;;;;;8.73;74.20;99732.63;6309063;28;20040;-78
2022/04/21 07:12:37;;;;;;;31.10;19.80;;;;;;;8.95;73.83;99734.81;6260184;28;20420;-80
2022/04/21 07:15:40;;;;;;;26.15;18.30;;;;;;;9.09;72.97;99737.44;6278243;28;20089;-80
2022/04/21 07:18:41;;;;;;;28.33;18.15;;;;;;;9.31;70.92;99737.00;6264977;28;20049;-80
2022/04/21 07:21:41;;;;;;;25.95;17.02;;;;;;;9.51;68.20;99733.16;6264469;28;20048;-79
2022/04/21 07:24:42;;;;;;;23.33;16.70;;;;;;;9.76;67.90;99736.84;6281148;28;20037;-83
2022/04/21 07:27:43;;;;;;;26.15;17.63;;;;;;;9.93;69.48;99728.81;6297553;28;20060;-82
2022/04/21 07:30:46;;;;;;;28.67;16.67;;;;;;;10.21;66.73;99740.91;6297516;28;20040;-82
2022/04/21 07:33:47;;;;;;;27.48;17.40;;;;;;;9.88;64.09;99736.94;6264625;28;20044;-83
2022/04/21 07:36:48;;;;;;;27.50;17.40;;;;;;;10.09;64.28;99729.50;6280753;28;20117;-80
2022/04/21 07:39:48;;;;;;;23.40;16.75;;;;;;;10.42;61.90;99738.72;6294622;28;20044;-79
2022/04/21 07:42:50;;;;;;;21.15;15.63;;;;;;;10.46;60.59;99739.38;6322517;28;20055;-80
2022/04/21 07:45:51;;;;;;;30.17;16.02;;;;;;;10.68;60.13;99744.81;6305479;28;20056;-79
2022/04/21 07:55:54;;;;;;;25.25;16.25;;;;;;;11.06;59.51;99733.59;6298466;28;20044;-79
2022/04/21 07:58:54;;;;;;;22.20;15.50;;;;;;;11.11;55.32;99740.28;6297252;28;20369;-79
2022/04/21 08:01:56;;;;;;;25.10;16.67;;;;;;;11.46;58.54;99740.44;6298277;28;20546;-84
2022/04/21 08:04:57;;;;;;;28.20;16.15;;;;;;;11.49;56.26;99738.47;6297120;28;20056;-81
2022/04/21 08:07:58;;;;;;;24.15;16.42;;;;;;;11.63;55.77;99737.50;6280168;28;20401;-77
2022/04/21 08:11:02;;;;;;;24.95;15.88;;;;;;;11.91;55.59;99724.28;6296623;28;20082;-83
2022/04/21 08:14:03;;;;;;;30.20;16.23;;;;;;;12.03;54.82;99739.09;6263624;28;20072;-83
2022/04/21 08:17:05;;;;;;;23.80;16.38;;;;;;;12.28;56.75;99731.13;6314716;28;20044;-80
2022/04/21 08:20:10;;;;;;;;;;;;;;;12.46;53.19;99728.94;6305448;28;20044;-79
2022/04/21 08:23:11;;;;;;;23.10;14.65;;;;;;;12.53;51.55;99716.22;6322779;28;20298;-82
2022/04/21 08:32:51;;;;;;;30.70;15.52;;;;;;;13.25;47.76;99721.22;6321604;28;20032;-79
2022/04/21 08:35:57;;;;;;;26.05;14.98;;;;;;;13.27;46.79;99718.50;6304442;28;20056;-77
2022/04/21 08:38:58;;;;;;;25.60;13.73;;;;;;;13.46;45.18;99723.16;6321196;28;20420;-77
2022/04/21 08:42:10;;;;;;;22.55;14.40;;;;;;;13.66;44.55;99721.59;6304354;28;20051;-77
2022/04/21 08:45:13;;;;;;;23.77;13.45;;;;;;;13.99;42.53;99712.00;6302444;28;20051;-80
2022/04/21 08:48:15;;;;;;;23.10;14.55;;;;;;;14.29;42.19;99717.38;6296182;28;20492;-80
2022/04/21 08:51:19;;;;;;;22.13;14.60;;;;;;;14.20;41.09;99712.03;6287456;28;20056;-82
2022/04/21 08:54:19;;;;;;;22.20;14.23;;;;;;;14.11;42.15;99719.69;6320740;28;20573;-83
2022/04/21 08:57:21;;;;;;;23.52;14.43;;;;;;;14.56;42.97;99715.22;6321963;28;20044;-84
2022/04/21 09:00:22;;;;;;;23.55;14.95;;;;;;;14.71;41.94;99711.34;6320487;28;20048;-85
2022/04/21 09:03:23;;;;;;;23.58;14.50;;;;;;;14.24;41.97;99709.03;6303679;28;20048;-85
2022/04/21 09:06:24;;;;;;;22.73;14.02;;;;;;;14.76;41.71;99713.56;6320374;28;20565;-84
2022/04/21 09:09:25;;;;;;;27.60;11.98;;;;;;;14.16;39.04;99710.63;6320384;28;20044;-80
2022/04/21 09:12:26;;;;;;;17.42;10.85;;;;;;;14.20;38.02;99707.59;6320073;28;20136;-80
2022/04/21 09:15:30;;;;;;;18.02;11.93;;;;;;;14.46;39.81;99705.47;6303512;28;20052;-84
2022/04/21 09:18:37;;;;;;;26.15;15.98;;;;;;;15.18;39.62;99708.28;6302962;28;20048;-80
2022/04/21 09:21:40;;;;;;;16.85;12.35;;;;;;;14.02;40.26;99709.09;6295867;28;20420;-79
2022/04/21 09:24:41;;;;;;;20.65;12.60;;;;;;;13.69;39.78;99697.75;6296588;28;20036;-78
2022/04/21 09:27:43;;;;;;;19.20;12.35;;;;;;;14.12;39.43;99694.28;6295332;28;20466;-84
2022/04/21 09:30:46;;;;;;;19.00;11.95;;;;;;;14.75;38.92;99693.53;6303793;28;20047;-81
2022/04/21 09:33:47;;;;;;;14.93;10.70;;;;;;;15.35;36.69;99693.69;6296164;28;20071;-81
2022/04/21 09:36:47;;;;;;;14.10;9.32;;;;;;;14.97;35.94;99693.41;6294667;28;20057;-79
2022/04/21 09:39:52;;;;;;;15.57;9.82;;;;;;;15.19;38.54;99692.38;6310787;28;20051;-82
2022/04/21 09:42:59;;;;;;;14.32;10.57;;;;;;;15.81;36.51;99681.78;6294468;28;20056;-79
2022/04/21 09:46:19;;;;;;;13.63;10.23;;;;;;;15.75;36.91;99679.69;6294402;28;20075;-81
2022/04/21 09:49:49;;;;;;;18.50;10.18;;;;;;;15.39;35.40;99690.66;6295595;28;20507;-79
2022/04/21 09:52:52;;;;;;;12.77;8.93;;;;;;;14.18;37.86;99680.66;6277510;28;20133;-82
2022/04/21 09:56:08;;;;;;;12.52;9.00;;;;;;;13.86;38.90;99686.75;6296294;28;20051;-82
2022/04/21 09:59:11;;;;;;;12.45;9.23;;;;;;;14.23;38.64;99672.44;6336732;28;20507;-80
2022/04/21 10:02:14;;;;;;;16.17;9.77;;;;;;;14.39;39.20;99682.47;6319507;28;20105;-81
2022/04/21 10:05:16;;;;;;;13.75;9.40;;;;;;;14.35;38.38;99676.69;6320169;28;20043;-82
2022/04/21 10:08:18;;;;;;;12.65;7.82;;;;;;;15.43;36.43;99676.28;6336142;28;20043;-83
2022/04/21 10:11:25;;;;;;;11.05;8.05;;;;;;;15.18;36.01;99671.50;6302455;28;20055;-78
2022/04/21 10:14:27;;;;;;;14.07;6.95;;;;;;;14.55;36.01;99663.66;6335664;28;20056;-83
2022/04/21 10:17:28;;;;;;;11.77;7.03;;;;;;;14.43;36.52;99662.91;6302898;28;20044;-82
2022/04/21 10:20:30;;;;;;;9.15;6.68;;;;;;;14.41;35.78;99663.03;6319306;28;20044;-81
2022/04/21 10:23:34;;;;;;;12.82;7.38;;;;;;;14.36;36.73;99662.56;6302413;28;20048;-79
2022/04/21 10:26:44;;;;;;;11.18;7.90;;;;;;;14.48;37.06;99674.69;6302486;28;20059;-79
2022/04/21 10:29:52;;;;;;;12.32;7.28;;;;;;;14.50;36.20;99667.50;6319052;28;20056;-81
2022/04/21 10:33:01;;;;;;;11.73;7.97;;;;;;;14.85;37.01;99674.25;6302194;28;20044;-82
2022/04/21 10:36:02;;;;;;;11.40;6.97;;;;;;;14.58;36.55;99668.69;6320562;28;20480;-80
2022/04/21 10:39:18;;;;;;;10.02;7.85;;;;;;;15.60;36.17;99672.16;6302038;28;20158;-79
2022/04/21 10:42:19;;;;;;;10.60;6.50;;;;;;;15.61;34.69;99662.50;6335792;28;20347;-81
2022/04/21 10:45:31;;;;;;;8.55;6.47;;;;;;;15.40;34.11;99660.78;6285225;28;20054;-79
2022/04/21 10:48:43;;;;;;;10.85;6.65;;;;;;;15.04;34.77;99659.53;6301777;28;20036;-82
2022/04/21 10:57:12;;;;;;;8.77;6.10;;;;;;;15.06;35.31;99658.44;6324432;28;20115;-83
2022/04/21 10:58:33;;;;;;;9.90;6.13;;;;;;;15.69;35.03;99660.03;6299686;28;20044;-78
2022/04/21 11:01:34;;;;;;;9.43;6.10;;;;;;;15.59;35.61;99651.28;6306627;28;20049;-81
2022/04/21 11:04:35;;;;;;;9.85;7.07;;;;;;;15.11;35.53;99653.63;6282050;28;20090;-82
2022/04/21 11:08:03;;;;;;;8.98;6.32;;;;;;;14.87;35.71;99653.94;6298836;28;20109;-82
2022/04/21 11:11:05;;;;;;;7.40;5.90;;;;;;;14.65;35.75;99646.22;6295538;28;20106;-81
2022/04/21 11:14:06;;;;;;;7.35;4.95;;;;;;;14.66;35.85;99653.97;6282473;28;20095;-84
2022/04/21 11:17:08;;;;;;;7.67;5.13;;;;;;;14.74;35.72;99650.66;6306769;28;20496;-81
2022/04/21 11:20:25;;;;;;;7.63;5.20;;;;;;;14.78;35.81;99653.88;6324640;28;20048;-83
2022/04/21 11:23:29;;;;;;;6.63;4.97;;;;;;;14.82;35.43;99653.47;6306662;28;20056;-82
2022/04/21 11:26:30;;;;;;;6.78;4.32;;;;;;;14.82;35.13;99645.59;6322871;28;20056;-81
2022/04/21 11:29:32;;;;;;;7.75;5.05;;;;;;;14.88;35.05;99641.63;6306229;28;20052;-84
2022/04/21 11:32:33;;;;;;;9.55;5.70;;;;;;;14.85;36.42;99645.34;6323045;28;20044;-83
2022/04/21 11:35:34;;;;;;;8.43;4.50;;;;;;;14.97;35.95;99643.47;6324639;28;20500;-85
2022/04/21 11:38:39;;;;;;;12.65;4.95;;;;;;;14.77;34.80;99646.97;6331961;28;20047;-78
2022/04/21 11:41:44;;;;;;;5.30;4.20;;;;;;;14.78;36.18;99641.56;6314164;28;20075;-79
2022/04/21 11:44:45;;;;;;;7.63;4.43;;;;;;;15.08;36.07;99642.56;6313324;28;20033;-79
2022/04/21 11:47:46;;;;;;;6.25;4.22;;;;;;;15.17;35.44;99638.28;6297153;28;20107;-79
2022/04/21 11:50:49;;;;;;;7.10;4.85;;;;;;;15.18;35.59;99616.31;6294871;28;20503;-81
2022/04/21 11:53:50;;;;;;;7.95;4.07;;;;;;;15.27;35.23;99639.16;6322129;28;20056;-79
2022/04/21 11:56:51;;;;;;;7.43;4.40;;;;;;;15.48;35.43;99634.66;6323653;28;20056;-79
2022/04/21 12:00:00;;;;;;;6.75;4.47;;;;;;;15.40;34.08;99633.66;6300803;28;20051;-79
2022/04/21 12:06:32;;;;;;;7.22;4.13;;;;;;;15.80;34.65;99630.16;6311348;28;20037;-80
2022/04/21 12:09:34;;;;;;;6.05;3.90;;;;;;;15.86;34.71;99632.25;6296735;28;20052;-80
2022/04/21 12:12:35;;;;;;;6.38;4.00;;;;;;;15.86;34.81;99635.69;6313499;28;20053;-81
2022/04/21 12:15:38;;;;;;;5.10;4.20;;;;;;;15.58;34.39;99631.19;6313676;28;20109;-79
2022/04/21 12:18:46;;;;;;;4.78;4.07;;;;;;;16.06;34.13;99619.91;6297863;28;20098;-80
2022/04/21 12:21:56;;;;;;;7.50;4.07;;;;;;;16.09;34.17;99623.09;6296465;28;20454;-81
2022/04/21 12:24:57;;;;;;;6.70;4.80;;;;;;;16.45;34.82;99625.13;6313291;28;20074;-81
2022/04/21 12:28:06;;;;;;;8.02;4.47;;;;;;;16.07;34.01;99629.47;6296369;28;20397;-82
2022/04/21 12:31:07;;;;;;;8.30;4.53;;;;;;;15.79;33.99;99620.59;6279555;28;20049;-78
2022/04/21 12:34:11;;;;;;;7.15;4.25;;;;;;;16.31;34.53;99619.34;6279527;28;20063;-82
2022/04/21 12:37:12;;;;;;;8.40;4.13;;;;;;;16.24;34.19;99610.31;6295983;28;20088;-80
2022/04/21 12:40:14;;;;;;;7.18;4.47;;;;;;;17.27;34.30;99597.22;6280812;28;20048;-81
2022/04/21 12:43:15;;;;;;;;;;;;;;;16.88;33.64;99607.97;6302118;28;20044;-81
2022/04/21 12:46:16;;;;;;;5.30;3.83;;;;;;;17.35;32.43;99613.16;6308637;28;19926;-78
2022/04/21 12:49:19;;;;;;;6.22;4.18;;;;;;;17.91;33.02;99598.06;6313202;28;20033;-81
2022/04/21 12:52:32;;;;;;;7.00;4.13;;;;;;;18.24;31.57;99596.53;6303073;28;20370;-78
2022/04/21 12:55:33;;;;;;;8.95;4.00;;;;;;;17.83;31.76;99600.63;6297547;28;20094;-83
2022/04/21 12:58:34;;;;;;;6.43;3.70;;;;;;;16.78;31.44;99593.97;6321945;28;20048;-85
2022/04/21 13:01:34;;;;;;;4.80;3.50;;;;;;;17.75;30.75;99593.44;6276979;28;20048;-79
2022/04/21 13:04:35;;;;;;;5.80;3.85;;;;;;;17.27;30.89;99598.06;6280323;28;20048;-84
2022/04/21 13:07:36;;;;;;;7.20;3.90;;;;;;;17.37;31.75;99589.28;6313884;28;20082;-77
2022/04/21 13:10:37;;;;;;;4.47;3.78;;;;;;;17.81;31.80;99589.34;6300414;28;20056;-85
2022/04/21 13:13:38;;;;;;;10.77;4.15;;;;;;;17.71;31.80;99592.91;6321940;28;20123;-79
2022/04/21 13:16:39;;;;;;;5.20;3.90;;;;;;;17.50;32.02;99593.22;6322089;28;20047;-82
2022/04/21 13:19:40;;;;;;;5.30;3.80;;;;;;;16.99;32.12;99589.34;6305283;28;20048;-79
2022/04/21 13:22:42;;;;;;;5.10;3.72;;;;;;;16.93;32.46;99587.28;6304834;28;20186;-78
2022/04/21 13:25:43;;;;;;;5.68;3.47;;;;;;;17.11;32.64;99595.22;6304297;28;20044;-84
2022/04/21 13:28:43;;;;;;;4.82;3.50;;;;;;;16.77;32.59;99590.50;6303447;28;20076;-79
2022/04/21 13:35:05;;;;;;;6.45;3.80;;;;;;;16.18;32.48;99595.09;6296396;28;20057;-77
2022/04/21 13:38:06;;;;;;;6.93;3.72;;;;;;;16.28;32.66;99587.19;6296704;28;20051;-78
2022/04/21 13:41:07;;;;;;;5.93;3.60;;;;;;;16.29;33.42;99591.50;6326244;28;20085;-78
2022/04/21 13:44:08;;;;;;;8.25;3.67;;;;;;;16.76;32.46;99580.09;6302847;28;20055;-80
2022/04/21 13:47:09;;;;;;;4.32;3.30;;;;;;;17.14;33.21;99579.13;6320078;28;20044;-82
2022/04/21 13:50:10;;;;;;;4.63;3.67;;;;;;;17.07;32.79;99585.97;6319821;28;20032;-80
2022/04/21 13:53:11;;;;;;;5.78;3.22;;;;;;;17.00;32.66;99583.09;6302949;28;20075;-77
2022/04/21 13:56:12;;;;;;;6.85;2.97;;;;;;;16.81;33.13;99584.00;6303040;28;20052;-86
2022/04/21 13:59:13;;;;;;;6.07;3.13;;;;;;;16.85;32.97;99577.47;6302680;28;20412;-83
2022/04/21 14:02:14;;;;;;;5.20;3.10;;;;;;;16.99;32.96;99575.34;6319830;28;20454;-83
2022/04/21 14:05:15;;;;;;;3.30;2.72;;;;;;;17.19;32.54;99562.88;6310955;28;20047;-80
2022/04/21 14:08:18;;;;;;;3.97;2.65;;;;;;;16.87;32.20;99574.69;6295408;28;20535;-81
2022/04/21 14:11:20;;;;;;;4.30;2.80;;;;;;;17.48;31.17;99581.13;6293017;28;20129;-83
2022/04/21 14:14:22;;;;;;;5.80;3.00;;;;;;;17.35;31.86;99564.84;6294165;28;20491;-83
2022/04/21 14:17:29;;;;;;;6.70;3.10;;;;;;;17.19;31.51;99568.97;6296053;28;20044;-80
2022/04/21 14:20:29;;;;;;;7.30;2.70;;;;;;;17.50;30.76;99577.38;6314813;28;20040;-82
2022/04/21 14:23:35;;;;;;;3.72;2.65;;;;;;;17.44;31.95;99582.41;6320709;28;20043;-81
2022/04/21 14:26:36;;;;;;;3.92;3.03;;;;;;;17.17;31.58;99578.81;6326005;28;20036;-83
2022/04/21 14:29:37;;;;;;;4.13;2.83;;;;;;;16.70;32.58;99582.38;6344609;28;20055;-82
2022/04/21 14:32:39;;;;;;;4.10;2.85;;;;;;;16.30;32.90;99575.53;6327692;28;20511;-79
2022/04/21 14:35:40;;;;;;;;;;;;;;;16.24;33.09;99577.91;6303749;28;20044;-79
2022/04/21 14:45:37;;;;;;;7.60;3.10;;;;;;;17.08;32.25;99561.28;6252188;28;20049;-79
2022/04/21 14:48:38;;;;;;;6.32;3.10;;;;;;;16.85;32.18;99574.00;6285450;28;20623;-79
2022/04/21 14:51:40;;;;;;;5.40;3.17;;;;;;;16.86;32.53;99580.94;6301374;28;20048;-78
2022/04/21 14:54:41;;;;;;;3.72;2.85;;;;;;;16.66;32.19;99585.44;6324748;28;20100;-83
2022/04/21 14:57:42;;;;;;;6.90;2.92;;;;;;;16.37;32.71;99567.06;6293681;28;20081;-82
2022/04/21 15:00:43;;;;;;;7.53;2.90;;;;;;;16.30;32.86;99577.34;6322074;28;20048;-82
2022/04/21 15:03:44;;;;;;;3.85;2.97;;;;;;;16.35;32.98;99572.50;6327237;28;20060;-83